Flight Number: EUR3026 Duration: 11:30
Departure: Tel Aviv Ben Gurion (LLBG) at 08:00 Distance: 4920 Nm
Arrival: John F Kennedy Int'l (KJFK) at 19:30 Equipment: B777

Weather Information
Ben-Gurion International Airport, Israel (LLBG) 32-00N 034-54E 49M Sep 21, 2017 - 09:50 AM EDT / 2017.09.21 1350 UTC
Wind: from the W (280 degrees) at 8 MPH (7 KT):0
Visibility: greater than 7 mile(s):0 Temperature: 84 F (29 C) Dew Point: 71 F (22 C) Relative Humidity: 65% Pressure (altimeter): 29.85 in. Hg (1011 hPa)
ob: LLBG 211350Z 28007KT CAVOK 29/22 Q1011 NOSIG cycle: 14
Sunrise: 03:31 Sunset: 15:35 (UTC)

KENNEDY INTERNATIONAL AIRPORT , NY, United States (KJFK) 40-38N 073-46W 9M Sep 21, 2017 - 09:51 AM EDT / 2017.09.21 1351 UTC
Wind: from the N (360 degrees) at 17 MPH (15 KT) gusting to 28 MPH (24 KT):0
Visibility: 10 mile(s):0
Sky conditions: mostly cloudy Temperature: 77.0 F (25.0 C) Dew Point: 64.0 F (17.8 C) Relative Humidity: 64% Pressure (altimeter): 30.01 in. Hg (1016 hPa)
ob: KJFK 211351Z 36015G24KT 10SM FEW032 FEW160 BKN240 25/18 A3001 RMK AO2 SLP161 T02500178 cycle: 14
Sunrise: 10:45 Sunset: 22:50 (UTC)

TAF:2017/09/21 13:30 TAF AMD KJFK 211322Z 2113/2218 35012KT P6SM SCT150 BKN250 FM211400 35014G21KT P6SM FEW040 BKN250 FM212300 36010KT P6SM SCT050 BKN250 FM220500 35012KT P6SM BKN250 FM221300 36014KT P6SM BKN100

Previous Pireps for this route
Date Aircraft Flight time Fuel used Landing rate On time
2016-02-03A34010.29201758-289Charter
(pireps marked green are flown by you)

Route map